createdAt,value
2023-08-26T00:00:28.695Z,12.30
2023-08-26T00:01:28.680Z,13.50
2023-08-26T00:02:28.653Z,11.70
2023-08-26T00:03:28.771Z,10.60
2023-08-26T00:04:28.630Z,11.20
2023-08-26T00:05:28.573Z,12.70
2023-08-26T00:06:28.550Z,11.10
2023-08-26T00:07:28.528Z,12.50
2023-08-26T00:08:28.509Z,11.50
2023-08-26T00:09:28.513Z,11.80
2023-08-26T00:10:28.466Z,11.60
2023-08-26T00:11:28.441Z,10.90
2023-08-26T00:12:28.419Z,11.90
2023-08-26T00:13:28.406Z,10.30
2023-08-26T00:14:28.379Z,11.80
2023-08-26T00:15:28.364Z,12.00
2023-08-26T00:16:28.335Z,10.60
2023-08-26T00:17:28.339Z,11.30
2023-08-26T00:18:28.293Z,11.00
2023-08-26T00:19:28.283Z,10.10
2023-08-26T00:20:28.318Z,10.10
2023-08-26T00:21:28.232Z,10.20
2023-08-26T00:22:28.210Z,11.10
2023-08-26T00:23:28.197Z,10.40
2023-08-26T00:24:28.171Z,10.90
2023-08-26T00:25:28.160Z,10.20
2023-08-26T00:26:28.129Z,10.60
2023-08-26T00:27:28.105Z,12.50
2023-08-26T00:28:28.086Z,10.40
2023-08-26T00:29:28.070Z,10.00
2023-08-26T00:30:28.038Z,9.50
2023-08-26T00:31:28.049Z,9.60
2023-08-26T00:32:28.127Z,10.20
2023-08-26T00:33:27.981Z,13.30
2023-08-26T00:34:27.967Z,10.10
2023-08-26T00:35:27.935Z,12.20
2023-08-26T00:36:27.936Z,9.70
2023-08-26T00:37:27.896Z,11.60
2023-08-26T00:38:27.874Z,10.40
2023-08-26T00:39:27.858Z,11.00
2023-08-26T00:40:27.834Z,10.50
2023-08-26T00:41:27.810Z,13.80
2023-08-26T00:42:27.797Z,10.80
2023-08-26T00:43:27.769Z,10.30
2023-08-26T00:44:27.761Z,9.20
2023-08-26T00:45:27.737Z,11.60
2023-08-26T00:46:27.742Z,10.70
2023-08-26T00:47:27.724Z,9.90
2023-08-26T00:48:27.671Z,10.90
2023-08-26T00:49:27.644Z,10.70
2023-08-26T00:50:27.621Z,11.60
2023-08-26T00:51:27.598Z,11.10
2023-08-26T00:52:27.599Z,11.40
2023-08-26T00:53:27.559Z,11.00
2023-08-26T00:54:27.535Z,10.20
2023-08-26T00:55:27.516Z,10.50
2023-08-26T00:56:27.504Z,11.70
2023-08-26T00:57:27.479Z,9.80
2023-08-26T00:58:27.453Z,10.50
2023-08-26T00:59:27.430Z,10.10
2023-08-26T01:00:27.419Z,11.50
2023-08-26T01:01:27.420Z,9.50
2023-08-26T01:02:27.367Z,10.70
2023-08-26T01:03:27.476Z,12.80
2023-08-26T01:04:27.342Z,9.70
2023-08-26T01:05:27.303Z,8.80
2023-08-26T01:06:27.285Z,10.30
2023-08-26T01:07:27.260Z,10.00
2023-08-26T01:08:27.259Z,9.20
2023-08-26T01:09:27.221Z,7.70
2023-08-26T01:10:27.199Z,8.70
2023-08-26T01:11:27.213Z,8.20
2023-08-26T01:12:27.164Z,9.00
2023-08-26T01:13:27.138Z,8.40
2023-08-26T01:14:27.114Z,8.50
2023-08-26T01:15:27.094Z,9.70
2023-08-26T01:16:27.131Z,9.20
2023-08-26T01:17:27.089Z,9.50
2023-08-26T01:18:27.034Z,11.00
2023-08-26T01:19:27.008Z,10.20
2023-08-26T01:20:26.987Z,10.00
2023-08-26T01:21:26.969Z,7.60
2023-08-26T01:22:26.944Z,9.40
2023-08-26T01:23:26.925Z,7.90
2023-08-26T01:24:26.919Z,10.00
2023-08-26T01:25:26.883Z,7.40
2023-08-26T01:26:26.862Z,8.30
2023-08-26T01:27:26.839Z,7.40
2023-08-26T01:28:26.826Z,9.80
2023-08-26T01:29:26.810Z,8.20
2023-08-26T01:30:26.776Z,10.10
2023-08-26T01:31:26.755Z,9.80
2023-08-26T01:32:26.751Z,9.20
2023-08-26T01:33:26.764Z,9.30
2023-08-26T01:34:26.700Z,9.10
2023-08-26T01:35:26.692Z,9.20
2023-08-26T01:36:26.646Z,8.60
2023-08-26T01:37:26.632Z,8.00
2023-08-26T01:38:26.602Z,9.20
2023-08-26T01:39:26.588Z,9.10
2023-08-26T01:40:26.584Z,9.00
2023-08-26T01:41:26.596Z,10.00
2023-08-26T01:42:26.515Z,10.30
2023-08-26T01:43:26.500Z,8.80
2023-08-26T01:44:26.471Z,9.30
2023-08-26T01:45:26.452Z,7.70
2023-08-26T01:46:27.584Z,9.50
2023-08-26T01:47:26.440Z,8.80
2023-08-26T01:48:26.383Z,12.50
2023-08-26T01:49:26.367Z,8.60
2023-08-26T01:50:26.385Z,8.30
2023-08-26T01:51:26.327Z,9.30
2023-08-26T01:52:26.296Z,8.50
2023-08-26T01:53:26.276Z,8.90
2023-08-26T01:54:26.256Z,8.90
2023-08-26T01:55:26.238Z,9.50
2023-08-26T01:56:26.230Z,8.00
2023-08-26T01:57:26.195Z,9.10
2023-08-26T01:58:26.172Z,8.90
2023-08-26T01:59:26.150Z,9.20
2023-08-26T02:00:26.127Z,9.70
2023-08-26T02:01:26.163Z,8.60
2023-08-26T02:02:26.079Z,9.00
2023-08-26T02:03:26.117Z,13.50
2023-08-26T02:04:26.060Z,8.30
2023-08-26T02:05:26.014Z,11.50
2023-08-26T02:06:25.992Z,10.20
2023-08-26T02:07:25.972Z,9.10
2023-08-26T02:08:25.949Z,12.70
2023-08-26T02:09:25.935Z,9.90
2023-08-26T02:10:25.908Z,9.10
2023-08-26T02:11:25.936Z,8.90
2023-08-26T02:12:25.880Z,11.00
2023-08-26T02:13:25.858Z,9.50
2023-08-26T02:14:25.820Z,10.20
2023-08-26T02:15:25.800Z,12.00
2023-08-26T02:16:25.794Z,10.50
2023-08-26T02:17:25.757Z,12.90
2023-08-26T02:18:25.738Z,9.40
2023-08-26T02:19:25.713Z,8.90
2023-08-26T02:20:25.687Z,11.00
2023-08-26T02:21:25.675Z,11.20
2023-08-26T02:22:25.643Z,11.00
2023-08-26T02:23:25.625Z,8.70
2023-08-26T02:24:25.611Z,9.70
2023-08-26T02:25:28.607Z,11.20
2023-08-26T02:26:25.558Z,10.60
2023-08-26T02:27:25.544Z,11.10
2023-08-26T02:28:25.540Z,9.20
2023-08-26T02:29:25.499Z,13.10
2023-08-26T02:30:25.475Z,10.60
2023-08-26T02:31:25.482Z,8.50
2023-08-26T02:32:25.449Z,11.00
2023-08-26T02:33:25.414Z,12.00
2023-08-26T02:34:25.386Z,10.60
2023-08-26T02:35:25.367Z,10.20
2023-08-26T02:36:25.346Z,13.90
2023-08-26T02:37:25.322Z,9.20
2023-08-26T02:38:25.304Z,9.20
2023-08-26T02:39:25.286Z,8.70
2023-08-26T02:40:25.268Z,10.70
2023-08-26T02:41:25.247Z,10.70
2023-08-26T02:42:25.215Z,10.00
2023-08-26T02:43:25.194Z,8.50
2023-08-26T02:44:25.193Z,8.80
2023-08-26T02:45:25.176Z,9.10
2023-08-26T02:46:25.192Z,9.50
2023-08-26T02:47:25.113Z,7.80
2023-08-26T02:48:25.092Z,8.90
2023-08-26T02:49:25.065Z,8.70
2023-08-26T02:50:25.050Z,10.30
2023-08-26T02:51:25.023Z,11.10
2023-08-26T02:52:25.002Z,9.40
2023-08-26T02:53:24.988Z,9.20
2023-08-26T02:54:24.960Z,9.00
2023-08-26T02:55:24.939Z,8.60
2023-08-26T02:56:24.922Z,9.80
2023-08-26T02:57:24.895Z,12.60
2023-08-26T02:58:24.887Z,8.40
2023-08-26T02:59:24.852Z,8.90
2023-08-26T03:00:24.850Z,9.70
2023-08-26T03:01:24.839Z,8.90
2023-08-26T03:02:24.820Z,11.60
2023-08-26T03:03:24.897Z,8.40
2023-08-26T03:04:24.750Z,8.00
2023-08-26T03:05:24.727Z,9.00
2023-08-26T03:06:24.710Z,11.00
2023-08-26T03:07:24.677Z,8.60
2023-08-26T03:08:24.660Z,9.60
2023-08-26T03:09:24.638Z,11.60
2023-08-26T03:10:24.617Z,7.50
2023-08-26T03:11:24.596Z,10.90
2023-08-26T03:12:24.578Z,10.60
2023-08-26T03:13:24.557Z,10.10
2023-08-26T03:14:24.533Z,10.10
2023-08-26T03:15:24.549Z,9.90
2023-08-26T03:16:24.507Z,10.50
2023-08-26T03:17:24.462Z,10.80
2023-08-26T03:18:24.446Z,12.80
2023-08-26T03:19:24.421Z,9.80
2023-08-26T03:20:24.403Z,10.40
2023-08-26T03:21:24.387Z,11.90
2023-08-26T03:22:24.357Z,13.80
2023-08-26T03:23:24.337Z,11.70
2023-08-26T03:24:24.316Z,10.00
2023-08-26T03:25:24.305Z,11.60
2023-08-26T03:26:24.274Z,10.60
2023-08-26T03:27:24.250Z,11.70
2023-08-26T03:28:24.230Z,12.20
2023-08-26T03:29:24.216Z,11.60
2023-08-26T03:30:24.190Z,9.60
2023-08-26T03:31:24.182Z,10.00
2023-08-26T03:32:24.187Z,10.90
2023-08-26T03:33:24.124Z,12.20
2023-08-26T03:34:24.100Z,12.40
2023-08-26T03:35:24.083Z,11.40
2023-08-26T03:36:24.065Z,10.00
2023-08-26T03:37:24.039Z,9.90
2023-08-26T03:38:24.016Z,10.50
2023-08-26T03:39:23.994Z,10.40
2023-08-26T03:40:23.976Z,9.60
2023-08-26T03:41:23.952Z,10.00
2023-08-26T03:42:23.931Z,10.90
2023-08-26T03:43:23.917Z,12.00
2023-08-26T03:44:23.887Z,10.00
2023-08-26T03:45:23.896Z,10.70
2023-08-26T03:46:23.869Z,9.50
2023-08-26T03:47:23.823Z,9.40
2023-08-26T03:48:23.832Z,9.80
2023-08-26T03:49:23.783Z,11.30
2023-08-26T03:50:23.760Z,10.50
2023-08-26T03:51:23.742Z,11.20
2023-08-26T03:52:23.715Z,8.60
2023-08-26T03:53:23.696Z,9.50
2023-08-26T03:54:23.672Z,11.30
2023-08-26T03:55:23.649Z,9.30
2023-08-26T03:56:23.627Z,8.50
2023-08-26T03:57:23.612Z,13.00
2023-08-26T03:58:23.584Z,10.00
2023-08-26T03:59:23.572Z,11.30
2023-08-26T04:00:23.574Z,7.90
2023-08-26T04:01:23.559Z,8.40
2023-08-26T04:02:23.498Z,9.40
2023-08-26T04:03:23.582Z,8.70
2023-08-26T04:04:23.477Z,9.00
2023-08-26T04:05:23.437Z,8.70
2023-08-26T04:06:23.414Z,10.70
2023-08-26T04:07:23.391Z,9.70
2023-08-26T04:08:23.371Z,10.70
2023-08-26T04:09:23.344Z,10.10
2023-08-26T04:10:25.490Z,11.10
2023-08-26T04:11:23.301Z,11.70
2023-08-26T04:12:23.281Z,9.10
2023-08-26T04:13:23.261Z,11.00
2023-08-26T04:14:23.237Z,11.50
2023-08-26T04:15:23.237Z,9.80
2023-08-26T04:16:23.220Z,10.10
2023-08-26T04:17:23.211Z,11.30
2023-08-26T04:18:23.154Z,10.40
2023-08-26T04:19:23.136Z,11.20
2023-08-26T04:20:23.128Z,13.50
2023-08-26T04:21:23.092Z,12.50
2023-08-26T04:22:23.064Z,9.90
2023-08-26T04:23:23.038Z,10.80
2023-08-26T04:24:23.020Z,10.60
2023-08-26T04:25:22.996Z,10.90
2023-08-26T04:26:22.975Z,12.60
2023-08-26T04:27:22.953Z,10.90
2023-08-26T04:28:22.931Z,13.60
2023-08-26T04:29:22.943Z,9.90
2023-08-26T04:30:22.892Z,11.80
2023-08-26T04:31:22.900Z,10.70
2023-08-26T04:32:22.920Z,11.90
2023-08-26T04:33:22.857Z,10.70
2023-08-26T04:34:22.801Z,11.60
2023-08-26T04:35:22.778Z,11.00
2023-08-26T04:36:22.781Z,9.50
2023-08-26T04:37:22.735Z,9.90
2023-08-26T04:38:22.713Z,11.10
2023-08-26T04:39:22.692Z,9.20
2023-08-26T04:40:24.393Z,11.20
2023-08-26T04:41:22.651Z,10.30
2023-08-26T04:42:22.625Z,10.10
2023-08-26T04:43:22.621Z,11.80
2023-08-26T04:44:22.584Z,10.80
2023-08-26T04:45:22.572Z,12.60
2023-08-26T04:46:24.763Z,10.30
2023-08-26T04:47:22.520Z,12.70
2023-08-26T04:48:22.502Z,9.20
2023-08-26T04:49:22.487Z,11.80
2023-08-26T04:50:22.461Z,10.10
2023-08-26T04:51:22.434Z,11.80
2023-08-26T04:52:22.432Z,10.50
2023-08-26T04:53:22.390Z,10.40
2023-08-26T04:54:22.381Z,10.20
2023-08-26T04:55:22.342Z,9.40
2023-08-26T04:56:22.321Z,11.00
2023-08-26T04:57:22.297Z,10.60
2023-08-26T04:58:22.276Z,8.90
2023-08-26T04:59:22.253Z,11.10
2023-08-26T05:00:22.307Z,10.90
2023-08-26T05:01:22.214Z,9.80
2023-08-26T05:02:22.269Z,9.10
2023-08-26T05:03:22.228Z,10.80
2023-08-26T05:04:22.145Z,14.20
2023-08-26T05:05:22.223Z,11.70
2023-08-26T05:06:22.118Z,9.90
2023-08-26T05:07:22.078Z,8.40
2023-08-26T05:08:22.085Z,10.90
2023-08-26T05:09:22.040Z,11.10
2023-08-26T05:10:22.012Z,12.50
2023-08-26T05:11:21.992Z,11.20
2023-08-26T05:12:21.973Z,11.90
2023-08-26T05:13:21.949Z,10.00
2023-08-26T05:14:21.926Z,14.40
2023-08-26T05:15:21.907Z,10.80
2023-08-26T05:16:21.922Z,10.30
2023-08-26T05:17:21.861Z,10.20
2023-08-26T05:18:21.839Z,12.00
2023-08-26T05:19:21.816Z,12.20
2023-08-26T05:20:21.799Z,10.80
2023-08-26T05:21:21.775Z,10.80
2023-08-26T05:22:21.750Z,11.80
2023-08-26T05:23:21.727Z,11.40
2023-08-26T05:24:21.728Z,8.00
2023-08-26T05:25:21.685Z,11.20
2023-08-26T05:26:21.674Z,10.70
2023-08-26T05:27:21.642Z,12.90
2023-08-26T05:28:21.631Z,8.70
2023-08-26T05:29:21.598Z,10.30
2023-08-26T05:30:21.615Z,9.00
2023-08-26T05:31:21.559Z,10.60
2023-08-26T05:32:21.541Z,10.10
2023-08-26T05:33:21.519Z,11.60
2023-08-26T05:34:21.495Z,8.10
2023-08-26T05:35:21.465Z,10.70
2023-08-26T05:36:21.445Z,10.20
2023-08-26T05:37:21.422Z,10.70
2023-08-26T05:38:21.400Z,11.20
2023-08-26T05:39:21.388Z,10.20
2023-08-26T05:40:21.377Z,11.00
2023-08-26T05:41:21.344Z,10.70
2023-08-26T05:42:21.313Z,10.40
2023-08-26T05:43:21.291Z,10.70
2023-08-26T05:44:21.270Z,9.10
2023-08-26T05:45:21.251Z,10.80
2023-08-26T05:46:21.296Z,10.30
2023-08-26T05:47:21.204Z,9.40
2023-08-26T05:48:21.184Z,11.70
2023-08-26T05:49:21.161Z,10.80
2023-08-26T05:50:21.151Z,10.80
2023-08-26T05:51:21.119Z,9.10
2023-08-26T05:52:21.097Z,10.10
2023-08-26T05:53:21.074Z,10.80
2023-08-26T05:54:21.052Z,9.80
2023-08-26T05:55:21.046Z,8.70
2023-08-26T05:56:21.029Z,9.50
2023-08-26T05:57:21.004Z,10.90
2023-08-26T05:58:20.966Z,9.80
2023-08-26T05:59:20.945Z,9.10
2023-08-26T06:00:20.926Z,9.80
2023-08-26T06:01:20.972Z,8.60
2023-08-26T06:02:20.886Z,9.00
2023-08-26T06:03:20.858Z,8.10
2023-08-26T06:04:20.880Z,11.50
2023-08-26T06:05:20.836Z,10.60
2023-08-26T06:06:20.794Z,11.10
2023-08-26T06:07:20.773Z,9.20
2023-08-26T06:08:20.784Z,9.70
2023-08-26T06:09:20.730Z,10.60
2023-08-26T06:10:20.726Z,8.00
2023-08-26T06:11:20.685Z,7.70
2023-08-26T06:12:20.684Z,8.80
2023-08-26T06:13:20.651Z,9.20
2023-08-26T06:14:20.656Z,8.10
2023-08-26T06:15:20.609Z,8.20
2023-08-26T06:16:20.653Z,9.30
2023-08-26T06:17:20.563Z,7.40
2023-08-26T06:18:20.544Z,8.70
2023-08-26T06:19:20.533Z,8.20
2023-08-26T06:20:20.493Z,10.10
2023-08-26T06:21:20.471Z,7.80
2023-08-26T06:22:20.453Z,10.50
2023-08-26T06:23:20.436Z,10.50
2023-08-26T06:24:20.425Z,9.10
2023-08-26T06:25:20.386Z,9.00
2023-08-26T06:26:20.365Z,7.50
2023-08-26T06:27:20.340Z,9.70
2023-08-26T06:28:20.341Z,8.20
2023-08-26T06:29:20.300Z,10.60
2023-08-26T06:30:20.288Z,7.70
2023-08-26T06:31:20.298Z,7.80
2023-08-26T06:32:20.238Z,8.20
2023-08-26T06:33:20.216Z,8.60
2023-08-26T06:34:20.199Z,8.20
2023-08-26T06:35:20.173Z,11.60
2023-08-26T06:36:20.156Z,11.10
2023-08-26T06:37:20.131Z,9.80
2023-08-26T06:38:20.111Z,8.80
2023-08-26T06:39:20.093Z,10.60
2023-08-26T06:40:20.067Z,9.20
2023-08-26T06:41:20.052Z,10.20
2023-08-26T06:42:20.026Z,8.20
2023-08-26T06:43:20.005Z,10.00
2023-08-26T06:44:20.007Z,8.40
2023-08-26T06:45:19.972Z,8.00
2023-08-26T06:46:20.038Z,9.40
2023-08-26T06:47:19.920Z,7.80
2023-08-26T06:48:19.983Z,8.70
2023-08-26T06:49:19.888Z,9.60
2023-08-26T06:50:19.868Z,9.10
2023-08-26T06:51:19.843Z,9.90
2023-08-26T06:52:19.824Z,9.20
2023-08-26T06:53:19.800Z,8.20
2023-08-26T06:54:19.774Z,9.30
2023-08-26T06:55:19.771Z,9.60
2023-08-26T06:56:19.737Z,7.40
2023-08-26T06:57:19.712Z,8.60
2023-08-26T06:58:19.704Z,7.40
2023-08-26T06:59:19.675Z,9.90
2023-08-26T07:00:19.675Z,10.90
2023-08-26T07:01:19.646Z,8.50
2023-08-26T07:02:19.608Z,10.00
2023-08-26T07:03:19.618Z,8.70
2023-08-26T07:04:19.569Z,13.10
2023-08-26T07:05:19.578Z,9.00
2023-08-26T07:06:19.528Z,8.40
2023-08-26T07:07:19.504Z,11.10
2023-08-26T07:08:19.488Z,7.80
2023-08-26T07:09:19.469Z,7.60
2023-08-26T07:10:19.440Z,10.10
2023-08-26T07:11:19.424Z,8.80
2023-08-26T07:12:19.401Z,12.10
2023-08-26T07:13:19.379Z,9.50
2023-08-26T07:14:19.364Z,9.80
2023-08-26T07:15:19.340Z,10.00
2023-08-26T07:16:19.378Z,9.00
2023-08-26T07:17:19.301Z,7.50
2023-08-26T07:18:20.491Z,9.60
2023-08-26T07:19:19.274Z,11.70
2023-08-26T07:20:19.235Z,9.10
2023-08-26T07:21:19.216Z,9.50
2023-08-26T07:22:27.196Z,8.90
2023-08-26T07:23:19.174Z,9.40
2023-08-26T07:24:19.156Z,8.10
2023-08-26T07:25:19.135Z,9.50
2023-08-26T07:26:19.110Z,10.70
2023-08-26T07:27:19.096Z,7.50
2023-08-26T07:28:19.069Z,10.50
2023-08-26T07:29:19.050Z,8.20
2023-08-26T07:30:19.034Z,9.40
2023-08-26T07:31:19.033Z,11.20
2023-08-26T07:32:19.020Z,8.50
2023-08-26T07:33:18.968Z,10.00
2023-08-26T07:34:18.944Z,11.00
2023-08-26T07:35:18.931Z,9.20
2023-08-26T07:36:18.939Z,10.40
2023-08-26T07:37:18.882Z,9.20
2023-08-26T07:38:18.862Z,9.40
2023-08-26T07:39:18.842Z,11.10
2023-08-26T07:40:18.825Z,11.10
2023-08-26T07:41:18.804Z,9.90
2023-08-26T07:42:18.784Z,8.30
2023-08-26T07:43:18.759Z,10.50
2023-08-26T07:44:18.738Z,9.80
2023-08-26T07:45:18.729Z,7.50
2023-08-26T07:47:18.691Z,7.40
2023-08-26T07:49:18.669Z,10.40
2023-08-26T07:50:18.624Z,8.90
2023-08-26T07:51:18.593Z,9.30
2023-08-26T07:52:18.571Z,9.80
2023-08-26T07:53:18.553Z,10.90
2023-08-26T07:54:18.569Z,8.60
2023-08-26T07:55:18.514Z,10.50
2023-08-26T07:56:18.497Z,8.30
2023-08-26T07:57:18.473Z,7.40
2023-08-26T07:58:18.451Z,6.80
2023-08-26T07:59:18.429Z,9.00
2023-08-26T08:00:18.405Z,9.40
2023-08-26T08:01:18.435Z,7.90
2023-08-26T08:02:18.364Z,9.50
2023-08-26T08:03:18.451Z,9.00
2023-08-26T08:04:18.400Z,7.30
2023-08-26T08:05:18.310Z,7.70
2023-08-26T08:06:18.308Z,11.10
2023-08-26T08:07:18.260Z,9.20
2023-08-26T08:08:18.244Z,8.90
2023-08-26T08:09:18.220Z,9.00
2023-08-26T08:10:18.199Z,10.80
2023-08-26T08:11:18.185Z,11.20
2023-08-26T08:12:18.156Z,11.70
2023-08-26T08:13:18.141Z,7.10
2023-08-26T08:14:18.113Z,8.50
2023-08-26T08:15:18.095Z,8.50
2023-08-26T08:16:18.125Z,11.10
2023-08-26T08:17:18.073Z,7.70
2023-08-26T08:18:18.040Z,9.30
2023-08-26T08:19:18.013Z,9.10
2023-08-26T08:20:18.017Z,9.60
2023-08-26T08:21:17.972Z,9.20
2023-08-26T08:22:20.329Z,7.90
2023-08-26T08:23:17.930Z,9.80
2023-08-26T08:24:17.906Z,9.60
2023-08-26T08:25:17.895Z,9.10
2023-08-26T08:26:17.875Z,9.60
2023-08-26T08:27:17.846Z,7.10
2023-08-26T08:28:17.827Z,9.00
2023-08-26T08:29:17.807Z,8.70
2023-08-26T08:30:17.782Z,9.90
2023-08-26T08:31:17.806Z,8.70
2023-08-26T08:32:17.743Z,7.30
2023-08-26T08:33:17.722Z,9.30
2023-08-26T08:34:17.700Z,9.30
2023-08-26T08:35:17.685Z,9.50
2023-08-26T08:36:17.680Z,11.40
2023-08-26T08:37:17.644Z,9.00
2023-08-26T08:38:17.622Z,9.10
2023-08-26T08:39:17.610Z,8.20
2023-08-26T08:40:17.575Z,10.90
2023-08-26T08:41:17.558Z,11.80
2023-08-26T08:42:17.535Z,9.70
2023-08-26T08:43:17.514Z,10.40
2023-08-26T08:44:17.502Z,8.40
2023-08-26T08:45:17.480Z,8.60
2023-08-26T08:46:17.478Z,9.30
2023-08-26T08:47:17.435Z,7.40
2023-08-26T08:48:17.410Z,8.30
2023-08-26T08:49:17.406Z,9.80
2023-08-26T08:50:17.373Z,8.70
2023-08-26T08:51:17.360Z,7.90
2023-08-26T08:52:17.344Z,8.70
2023-08-26T08:53:17.308Z,7.40
2023-08-26T08:54:17.282Z,9.30
2023-08-26T08:55:17.265Z,6.80
2023-08-26T08:56:17.244Z,10.10
2023-08-26T08:57:17.225Z,11.10
2023-08-26T08:58:17.202Z,9.10
2023-08-26T08:59:17.184Z,8.10
2023-08-26T09:00:17.165Z,8.60
2023-08-26T09:01:17.183Z,8.80
2023-08-26T09:02:17.183Z,8.70
2023-08-26T09:03:17.172Z,9.80
2023-08-26T09:04:17.082Z,9.40
2023-08-26T09:05:17.072Z,9.30
2023-08-26T09:06:17.043Z,10.30
2023-08-26T09:07:17.018Z,10.50
2023-08-26T09:08:17.020Z,9.90
2023-08-26T09:09:30.266Z,9.40
2023-08-26T09:10:16.968Z,9.90
2023-08-26T09:11:16.935Z,8.10
2023-08-26T09:12:16.915Z,7.90
2023-08-26T09:13:16.896Z,6.10
2023-08-26T09:14:16.888Z,8.20
2023-08-26T09:15:16.876Z,9.00
2023-08-26T09:16:16.871Z,8.90
2023-08-26T09:17:16.813Z,9.30
2023-08-26T09:18:16.834Z,8.50
2023-08-26T09:19:16.774Z,10.50
2023-08-26T09:20:16.761Z,8.20
2023-08-26T09:21:16.733Z,8.30
2023-08-26T09:22:16.710Z,9.20
2023-08-26T09:23:16.697Z,7.70
2023-08-26T09:24:16.722Z,11.10
2023-08-26T09:25:16.653Z,9.30
2023-08-26T09:26:16.629Z,7.60
2023-08-26T09:27:16.612Z,9.20
2023-08-26T09:28:16.590Z,11.00
2023-08-26T09:29:16.575Z,9.30
2023-08-26T09:30:16.549Z,10.00
2023-08-26T09:31:16.576Z,8.20
2023-08-26T09:32:16.507Z,8.30
2023-08-26T09:33:16.494Z,10.20
2023-08-26T09:34:16.483Z,8.00
2023-08-26T09:35:20.176Z,10.90
2023-08-26T09:37:16.410Z,10.20
2023-08-26T09:38:16.390Z,7.80
2023-08-26T09:39:16.372Z,7.90
2023-08-26T09:40:16.372Z,9.70
2023-08-26T09:41:16.334Z,9.10
2023-08-26T09:42:16.311Z,10.40
2023-08-26T09:43:16.293Z,7.80
2023-08-26T09:44:16.272Z,9.40
2023-08-26T09:45:16.254Z,9.80
2023-08-26T09:46:16.279Z,9.00
2023-08-26T09:47:16.245Z,8.40
2023-08-26T09:48:16.219Z,9.40
2023-08-26T09:49:16.179Z,9.10
2023-08-26T09:50:16.151Z,7.90
2023-08-26T09:51:16.134Z,7.70
2023-08-26T09:52:16.114Z,8.40
2023-08-26T09:53:16.096Z,7.80
2023-08-26T09:54:16.076Z,8.40
2023-08-26T09:55:16.060Z,10.50
2023-08-26T09:56:16.066Z,8.90
2023-08-26T09:57:16.019Z,8.50
2023-08-26T09:58:15.999Z,9.80
2023-08-26T09:59:15.987Z,7.10
2023-08-26T10:00:15.960Z,7.60
2023-08-26T10:01:15.945Z,10.80
2023-08-26T10:02:15.930Z,10.50
2023-08-26T10:03:15.981Z,8.00
2023-08-26T10:04:15.884Z,8.90
2023-08-26T10:05:15.869Z,9.90
2023-08-26T10:06:15.846Z,11.80
2023-08-26T10:07:15.829Z,7.50
2023-08-26T10:08:15.809Z,8.60
2023-08-26T10:09:15.791Z,9.10
2023-08-26T10:10:15.803Z,9.80
2023-08-26T10:11:15.751Z,8.40
2023-08-26T10:12:15.748Z,9.40
2023-08-26T10:13:15.711Z,10.50
2023-08-26T10:14:15.689Z,8.60
2023-08-26T10:15:15.676Z,12.40
2023-08-26T10:16:20.416Z,9.80
2023-08-26T10:17:15.632Z,11.40
2023-08-26T10:18:15.619Z,10.30
2023-08-26T10:19:15.601Z,9.80
2023-08-26T10:20:15.574Z,10.10
2023-08-26T10:21:15.559Z,9.60
2023-08-26T10:22:15.534Z,10.60
2023-08-26T10:23:15.520Z,11.60
2023-08-26T10:24:15.496Z,9.20
2023-08-26T10:25:15.469Z,10.80
2023-08-26T10:26:15.446Z,7.70
2023-08-26T10:27:15.429Z,9.40
2023-08-26T10:28:15.432Z,9.20
2023-08-26T10:29:15.388Z,9.00
2023-08-26T10:30:15.373Z,9.80
2023-08-26T10:31:15.378Z,8.30
2023-08-26T10:32:15.326Z,7.10
2023-08-26T10:33:15.305Z,10.00
2023-08-26T10:34:15.300Z,7.30
2023-08-26T10:35:15.282Z,9.50
2023-08-26T10:36:15.244Z,8.50
2023-08-26T10:37:15.222Z,9.10
2023-08-26T10:38:15.202Z,8.80
2023-08-26T10:39:15.176Z,9.60
2023-08-26T10:40:15.160Z,14.10
2023-08-26T10:41:15.132Z,12.30
2023-08-26T10:42:15.175Z,15.90
2023-08-26T10:43:15.122Z,17.00
2023-08-26T10:44:15.107Z,67.70
2023-08-26T10:45:15.092Z,21.60
2023-08-26T10:46:15.093Z,22.90
2023-08-26T10:47:15.021Z,21.60
2023-08-26T10:48:15.004Z,26.40
2023-08-26T10:49:14.957Z,35.20
2023-08-26T10:50:14.934Z,35.10
2023-08-26T10:51:14.912Z,34.20
2023-08-26T10:52:14.889Z,31.10
2023-08-26T10:53:14.889Z,32.10
2023-08-26T10:54:14.841Z,31.70
2023-08-26T10:55:14.823Z,30.60
2023-08-26T10:56:14.814Z,33.60
2023-08-26T10:57:14.775Z,39.10
2023-08-26T10:58:14.779Z,30.90
2023-08-26T10:59:14.728Z,30.70
2023-08-26T11:00:14.723Z,32.30
2023-08-26T11:01:14.705Z,32.60
2023-08-26T11:02:14.711Z,38.40
2023-08-26T11:03:14.733Z,39.70
2023-08-26T11:04:14.615Z,28.80
2023-08-26T11:05:14.591Z,27.60
2023-08-26T11:06:14.566Z,28.90
2023-08-26T11:07:14.546Z,30.10
2023-08-26T11:08:14.530Z,26.70
2023-08-26T11:09:15.423Z,30.90
2023-08-26T11:10:14.478Z,30.00
2023-08-26T11:11:14.466Z,24.90
2023-08-26T11:12:14.433Z,27.90
2023-08-26T11:13:14.418Z,31.70
2023-08-26T11:14:14.386Z,35.70
2023-08-26T11:15:14.371Z,34.80
2023-08-26T11:16:16.602Z,32.20
2023-08-26T11:17:14.318Z,31.90
2023-08-26T11:18:14.424Z,30.90
2023-08-26T11:19:14.271Z,32.00
2023-08-26T11:20:14.251Z,23.40
2023-08-26T11:21:14.235Z,27.60
2023-08-26T11:22:14.207Z,28.20
2023-08-26T11:23:14.178Z,29.40
2023-08-26T11:24:14.155Z,36.00
2023-08-26T11:25:14.134Z,37.80
2023-08-26T11:26:14.110Z,32.70
2023-08-26T11:27:14.091Z,39.10
2023-08-26T11:28:14.102Z,34.50
2023-08-26T11:29:14.047Z,35.60
2023-08-26T11:30:14.017Z,38.10
2023-08-26T11:31:13.995Z,38.00
2023-08-26T11:32:13.995Z,38.00
2023-08-26T11:33:14.015Z,41.20
2023-08-26T11:34:13.925Z,39.20
2023-08-26T11:35:13.948Z,32.90
2023-08-26T11:36:13.892Z,32.10
2023-08-26T11:37:13.857Z,39.80
2023-08-26T11:38:13.836Z,35.30
2023-08-26T11:39:13.812Z,36.30
2023-08-26T11:40:13.812Z,30.00
2023-08-26T11:41:13.771Z,32.00
2023-08-26T11:42:13.758Z,32.70
2023-08-26T11:43:13.720Z,35.60
2023-08-26T11:44:13.704Z,32.50
2023-08-26T11:45:13.762Z,26.10
2023-08-26T11:46:13.684Z,28.70
2023-08-26T11:47:13.631Z,31.70
2023-08-26T11:48:13.662Z,29.10
2023-08-26T11:49:13.586Z,28.80
2023-08-26T11:50:13.585Z,30.50
2023-08-26T11:51:13.542Z,30.10
2023-08-26T11:52:13.518Z,25.10
2023-08-26T11:53:13.496Z,29.60
2023-08-26T11:54:13.503Z,28.40
2023-08-26T11:55:13.459Z,30.20
2023-08-26T11:56:13.433Z,29.60
2023-08-26T11:57:13.407Z,23.40
2023-08-26T11:58:13.382Z,26.00
2023-08-26T11:59:13.358Z,23.60
2023-08-26T12:00:13.376Z,24.00
2023-08-26T12:01:13.313Z,27.50
2023-08-26T12:02:13.306Z,26.50
2023-08-26T12:03:13.336Z,30.20
2023-08-26T12:04:13.311Z,22.70
2023-08-26T12:05:13.230Z,22.60
2023-08-26T12:06:13.201Z,26.50
2023-08-26T12:07:13.184Z,27.80
2023-08-26T12:08:13.167Z,23.70
2023-08-26T12:09:13.133Z,24.50
2023-08-26T12:10:13.121Z,21.10
2023-08-26T12:11:13.087Z,24.60
2023-08-26T12:12:13.077Z,19.00
2023-08-26T12:13:13.054Z,19.50
2023-08-26T12:14:13.026Z,17.90
2023-08-26T12:15:13.021Z,21.00
2023-08-26T12:16:12.994Z,25.70
2023-08-26T12:17:12.947Z,26.50
2023-08-26T12:18:12.961Z,26.60
2023-08-26T12:19:12.903Z,30.70
2023-08-26T12:20:12.899Z,29.60
2023-08-26T12:21:12.870Z,25.70
2023-08-26T12:22:12.836Z,23.50
2023-08-26T12:23:12.817Z,25.00
2023-08-26T12:24:12.787Z,27.20
2023-08-26T12:25:12.760Z,30.60
2023-08-26T12:26:12.780Z,23.30
2023-08-26T12:27:12.728Z,29.20
2023-08-26T12:28:12.693Z,32.40
2023-08-26T12:29:12.674Z,22.40
2023-08-26T12:30:12.645Z,25.20
2023-08-26T12:31:12.661Z,22.40
2023-08-26T12:32:12.611Z,25.10
2023-08-26T12:33:23.548Z,21.00
2023-08-26T12:34:12.552Z,20.90
2023-08-26T12:35:12.532Z,18.70
2023-08-26T12:36:12.521Z,21.50
2023-08-26T12:37:12.479Z,22.70
2023-08-26T12:38:12.460Z,20.40
2023-08-26T12:39:12.433Z,21.60
2023-08-26T12:40:12.457Z,17.80
2023-08-26T12:41:12.383Z,20.70
2023-08-26T12:42:12.361Z,18.00
2023-08-26T12:43:12.337Z,18.10
2023-08-26T12:44:12.314Z,19.40
2023-08-26T12:45:12.301Z,19.30
2023-08-26T12:46:12.355Z,17.90
2023-08-26T12:47:12.250Z,17.30
2023-08-26T12:48:13.698Z,18.90
2023-08-26T12:49:22.899Z,19.60
2023-08-26T12:50:12.178Z,18.30
2023-08-26T12:51:12.156Z,17.30
2023-08-26T12:52:12.144Z,18.40
2023-08-26T12:53:13.488Z,19.20
2023-08-26T12:54:12.078Z,20.10
2023-08-26T12:55:12.053Z,18.70
2023-08-26T12:56:12.037Z,21.10
2023-08-26T12:57:12.004Z,17.80
2023-08-26T12:58:11.981Z,20.30
2023-08-26T12:59:11.957Z,19.80
2023-08-26T13:00:11.950Z,17.60
2023-08-26T13:01:11.934Z,21.40
2023-08-26T13:02:11.923Z,22.40
2023-08-26T13:03:11.919Z,22.20
2023-08-26T13:04:11.838Z,22.40
2023-08-26T13:05:11.821Z,21.60
2023-08-26T13:06:11.792Z,23.50